Time;durP1;ratioP1;P1;durP2;ratioP2;P2;SDS_P1;SDS_P2;PMS_P1;PMS_P2;Temp;Humidity;BMP_temperature;BMP_pressure;BME280_temperature;BME280_humidity;BME280_pressure;Samples;Min_cycle;Max_cycle;Signal;HPM_P1;HPM_P2
2022/08/08 00:01:46;;;;;;;13.52;7.60;;;22.50;97.80;;;;;;5026910;28;20052;-92
2022/08/08 00:04:33;;;;;;;12.20;7.50;;;25.50;99.00;;;;;;5019833;28;20569;-81
2022/08/08 00:07:18;;;;;;;12.73;7.75;;;22.10;98.40;;;;;;5034887;28;20020;-81
2022/08/08 00:10:10;;;;;;;15.15;8.65;;;22.00;98.60;;;;;;5011541;28;20025;-79
2022/08/08 00:13:17;;;;;;;13.15;7.63;;;21.80;98.90;;;;;;5026479;28;20044;-85
2022/08/08 00:15:51;;;;;;;14.68;8.32;;;21.80;99.10;;;;;;5026571;28;20093;-84
2022/08/08 00:18:20;;;;;;;14.90;9.15;;;21.00;99.30;;;;;;5006219;28;20502;-90
2022/08/08 00:20:57;;;;;;;13.50;8.05;;;22.50;98.50;;;;;;5024098;28;20056;-80
2022/08/08 00:23:55;;;;;;;13.82;8.10;;;22.30;98.60;;;;;;5007200;28;20049;-85
2022/08/08 00:26:34;;;;;;;13.13;8.13;;;21.90;98.70;;;;;;4946468;28;20665;-83
2022/08/08 00:29:10;;;;;;;13.10;7.78;;;21.50;99.60;;;;;;4963773;28;20054;-86
2022/08/08 00:31:42;;;;;;;14.77;7.97;;;21.40;99.90;;;;;;4961722;28;20112;-79
2022/08/08 00:37:21;;;;;;;11.02;7.32;;;21.30;99.90;;;;;;4961511;28;20711;-89
2022/08/08 00:40:07;;;;;;;12.88;7.95;;;21.10;99.90;;;;;;4946448;28;20505;-85
2022/08/08 00:43:17;;;;;;;14.63;7.93;;;20.90;99.90;;;;;;4961427;28;20085;-83
2022/08/08 00:45:55;;;;;;;13.65;8.32;;;21.40;99.90;;;;;;4885094;29;20425;-87
2022/08/08 00:49:01;;;;;;;13.35;7.88;;;23.30;99.90;;;;;;4884985;29;20094;-86
2022/08/08 00:51:44;;;;;;;12.23;7.65;;;21.30;99.90;;;;;;4885327;29;20048;-88
2022/08/08 00:54:25;;;;;;;16.15;8.75;;;21.70;99.90;;;;;;4884958;29;20585;-86
2022/08/08 00:57:26;;;;;;;15.57;7.90;;;22.00;99.50;;;;;;4884823;29;20068;-90
2022/08/08 01:00:09;;;;;;;13.05;7.53;;;22.20;98.50;;;;;;4884656;29;20101;-90
2022/08/08 01:03:02;;;;;;;14.95;7.47;;;22.60;98.20;;;;;;4892834;29;20739;-86
2022/08/08 01:05:57;;;;;;;13.25;8.00;;;22.40;98.30;;;;;;4922930;29;20119;-86
2022/08/08 01:08:31;;;;;;;15.55;8.40;;;22.10;98.60;;;;;;4906877;29;20772;-86
2022/08/08 01:11:34;;;;;;;12.30;8.05;;;21.80;99.60;;;;;;4906091;29;20035;-86
2022/08/08 01:14:33;;;;;;;13.40;7.13;;;21.90;99.40;;;;;;4922998;29;20094;-92
2022/08/08 01:17:05;;;;;;;13.88;7.57;;;21.80;99.40;;;;;;4922305;29;20090;-82
2022/08/08 01:20:00;;;;;;;15.45;8.32;;;22.00;98.90;;;;;;4922258;29;20048;-92
2022/08/08 01:22:44;;;;;;;14.25;8.20;;;22.20;98.70;;;;;;4978402;28;20033;-88
2022/08/08 01:25:30;;;;;;;12.45;6.93;;;22.30;98.30;;;;;;5004381;28;20013;-86
2022/08/08 01:28:29;;;;;;;11.70;7.18;;;22.10;98.50;;;;;;5023051;28;20087;-91
2022/08/08 01:31:19;;;;;;;13.77;7.88;;;22.20;98.60;;;;;;5022532;28;20117;-91
2022/08/08 01:34:03;;;;;;;14.15;8.13;;;22.40;98.00;;;;;;5022137;28;20033;-91
2022/08/08 01:37:04;;;;;;;13.98;7.82;;;22.10;98.40;;;;;;5005701;28;20033;-88
2022/08/08 01:39:42;;;;;;;11.65;6.75;;;21.70;99.10;;;;;;5022388;28;20494;-91
2022/08/08 01:42:21;;;;;;;13.50;7.93;;;21.40;99.90;;;;;;5021353;28;20061;-91
2022/08/08 01:45:14;;;;;;;14.52;8.25;;;21.20;99.90;;;;;;5004813;28;20022;-85
2022/08/08 01:47:52;;;;;;;12.63;6.82;;;21.40;99.90;;;;;;5004280;28;20052;-91
2022/08/08 01:50:56;;;;;;;12.77;7.65;;;21.50;99.90;;;;;;5021833;28;20024;-92
2022/08/08 01:54:01;;;;;;;13.35;7.55;;;21.80;99.40;;;;;;5021252;28;20032;-92
2022/08/08 01:56:38;;;;;;;11.60;6.50;;;21.20;99.30;;;;;;5021424;28;20027;-87
2022/08/08 01:59:22;;;;;;;11.63;7.40;;;21.40;99.80;;;;;;5021403;28;20056;-87
2022/08/08 02:02:25;;;;;;;12.07;7.22;;;21.10;99.90;;;;;;5027252;28;20123;-92
2022/08/08 02:05:39;;;;;;;14.30;7.57;;;20.70;99.90;;;;;;5041195;28;20032;-90
2022/08/08 02:08:07;;;;;;;14.10;7.35;;;21.00;99.90;;;;;;5034029;28;20380;-86
2022/08/08 02:11:00;;;;;;;10.43;6.70;;;20.80;99.90;;;;;;5040766;28;20137;-86
2022/08/08 02:13:44;;;;;;;12.23;7.28;;;21.20;99.90;;;;;;5041196;28;20281;-83
2022/08/08 02:16:24;;;;;;;12.07;6.93;;;21.20;99.90;;;;;;5041317;28;20075;-86
2022/08/08 02:19:02;;;;;;;13.10;7.35;;;21.20;99.90;;;;;;5041518;28;20032;-84
2022/08/08 02:24:55;;;;;;;10.95;6.63;;;21.50;99.80;;;;;;5040702;28;20677;-78
2022/08/08 02:27:32;;;;;;;14.05;6.78;;;17.70;98.70;;;;;;5040918;28;20021;-91
2022/08/08 02:30:07;;;;;;;12.15;7.13;;;21.50;99.80;;;;;;5023283;28;20019;-89
2022/08/08 02:32:39;;;;;;;11.90;7.00;;;21.00;99.90;;;;;;5040910;28;20128;-88
2022/08/08 02:35:16;;;;;;;12.70;6.85;;;21.00;99.90;;;;;;5041726;28;20013;-88
2022/08/08 02:38:12;;;;;;;14.18;8.05;;;20.90;99.90;;;;;;5007247;28;20025;-90
2022/08/08 02:41:06;;;;;;;13.20;7.55;;;20.70;99.90;;;;;;5041433;28;20043;-91
2022/08/08 02:44:03;;;;;;;12.25;6.30;;;21.10;99.90;;;;;;5041025;28;20025;-80
2022/08/08 02:47:14;;;;;;;11.38;6.60;;;22.20;99.90;;;;;;5040870;28;20017;-88
2022/08/08 02:49:52;;;;;;;11.93;7.05;;;21.00;99.90;;;;;;5036758;28;20047;-92
2022/08/08 02:52:43;;;;;;;11.75;7.13;;;20.70;99.90;;;;;;5041182;28;20029;-89
2022/08/08 02:55:23;;;;;;;12.35;7.15;;;20.20;99.90;;;;;;5023272;28;20032;-92
2022/08/08 02:58:28;;;;;;;13.30;7.88;;;20.50;99.90;;;;;;5052390;28;20012;-83
2022/08/08 03:01:19;;;;;;;13.52;7.22;;;20.30;99.90;;;;;;5026936;23;20072;-91
2022/08/08 03:04:26;;;;;;;12.15;7.03;;;20.20;99.90;;;;;;5004397;28;20021;-85
2022/08/08 03:07:29;;;;;;;11.23;6.72;;;20.40;99.90;;;;;;5025597;28;20031;-86
2022/08/08 03:10:28;;;;;;;13.90;6.82;;;20.40;99.90;;;;;;5028750;28;20010;-88
2022/08/08 03:13:18;;;;;;;14.88;6.80;;;20.40;99.90;;;;;;5015298;28;20029;-92
2022/08/08 03:16:17;;;;;;;11.48;6.15;;;20.90;99.90;;;;;;5005474;28;20404;-92
2022/08/08 03:18:51;;;;;;;13.02;7.18;;;21.00;99.90;;;;;;4985694;28;20191;-78
2022/08/08 03:21:16;;;;;;;12.52;6.80;;;21.00;99.90;;;;;;4967832;28;20026;-89
2022/08/08 03:23:45;;;;;;;12.18;6.55;;;21.10;99.90;;;;;;5000439;28;20148;-87
2022/08/08 03:26:28;;;;;;;11.70;6.60;;;23.90;99.90;;;;;;4999635;28;20080;-89
2022/08/08 03:29:00;;;;;;;11.55;6.20;;;21.00;99.90;;;;;;4999832;28;20045;-90
2022/08/08 03:34:28;;;;;;;11.27;6.75;;;21.10;99.90;;;;;;4999804;28;20040;-90
2022/08/08 03:40:36;;;;;;;;;;;;;;;;;;;;;
2022/08/08 03:44:15;;;;;;;12.48;6.50;;;20.80;99.90;;;;;;4940291;28;20024;-95
2022/08/08 03:54:54;;;;;;;;;;;;;;;;;;;;;
2022/08/08 04:05:13;;;;;;;12.73;6.53;;;20.10;99.90;;;;;;4705723;30;20038;-83
2022/08/08 04:08:32;;;;;;;14.63;7.13;;;19.80;99.90;;;;;;4687289;30;20765;-91
2022/08/08 04:18:56;;;;;;;;;;;;;;;;;;;;;
2022/08/08 05:00:47;;;;;;;10.23;5.82;;;21.00;99.90;;;;;;5606241;22;15092618;-86
2022/08/08 05:04:10;;;;;;;;;;;;;;;;;;;;;
2022/08/08 05:31:12;;;;;;;;;;;;;;;;;;;;;
2022/08/08 05:38:51;;;;;;;;;;;;;;;;;;;;;
2022/08/08 05:48:58;;;;;;;11.90;6.50;;;22.40;97.80;;;;;;5896200;24;20022;-93
2022/08/08 06:29:33;;;;;;;;;;;;;;;;;;;;;
2022/08/08 06:36:36;;;;;;;;;;;;;;;;;;;;;
2022/08/08 06:39:49;;;;;;;15.75;7.43;;;23.80;96.10;;;;;;5785800;24;20071;-86
2022/08/08 06:49:05;;;;;;;13.18;7.88;;;24.00;96.20;;;;;;5601667;25;20025;-89
2022/08/08 06:51:40;;;;;;;13.63;8.02;;;24.10;95.90;;;;;;5593922;25;20007;-88
2022/08/08 06:54:14;;;;;;;12.82;7.70;;;20.40;95.70;;;;;;5594235;25;20015;-92
2022/08/08 07:00:43;;;;;;;13.68;8.00;;;21.10;95.10;;;;;;5602747;25;20106;-92
2022/08/08 07:06:43;;;;;;;13.57;8.38;;;24.50;96.10;;;;;;5597818;25;20025;-89
2022/08/08 07:19:05;;;;;;;16.50;7.65;;;24.70;96.20;;;;;;5993570;23;20023;-91
2022/08/08 08:11:06;;;;;;;;;;;;;;;;;;;;;
2022/08/08 08:17:45;;;;;;;12.32;6.35;;;25.40;91.00;;;;;;5622303;25;20010;-93
2022/08/08 08:27:32;;;;;;;11.10;6.25;;;28.20;89.20;;;;;;5949264;23;20230;-90
2022/08/08 08:31:30;;;;;;;;;;;;;;;;;;;;;
2022/08/08 12:16:08;;;;;;;7.20;3.72;;;36.90;49.30;;;;;;5965992;23;20210;-84
2022/08/08 12:19:12;;;;;;;9.13;3.72;;;36.40;50.10;;;;;;5920679;24;20013;-87
2022/08/08 12:21:39;;;;;;;6.10;3.63;;;37.40;51.40;;;;;;5966989;23;20613;-87
2022/08/08 12:26:58;;;;;;;7.90;4.57;;;35.50;51.80;;;;;;5995407;23;20015;-87
2022/08/08 12:46:22;;;;;;;12.68;4.10;;;29.80;62.90;;;;;;6004860;23;20384;-89
2022/08/08 12:49:00;;;;;;;7.68;3.80;;;29.70;64.80;;;;;;5973083;23;20697;-88
2022/08/08 12:51:37;;;;;;;8.00;3.67;;;29.60;64.50;;;;;;5972605;23;20091;-87
2022/08/08 12:54:06;;;;;;;8.35;3.85;;;;;;;;;;5999244;23;20008;-88
2022/08/08 12:57:24;;;;;;;7.85;3.15;;;28.50;65.10;;;;;;5972976;23;20008;-86
2022/08/08 12:59:59;;;;;;;10.50;3.10;;;;;;;;;;5971252;23;20083;-92
2022/08/08 13:03:31;;;;;;;;;;;;;;;;;;;;;
2022/08/08 13:06:46;;;;;;;11.63;5.20;;;26.20;69.60;;;;;;5993683;23;20023;-86
2022/08/08 13:10:33;;;;;;;12.40;3.53;;;27.20;75.60;;;;;;5887253;23;20029;-91
2022/08/08 13:13:33;;;;;;;10.95;3.95;;;25.60;79.60;;;;;;5724636;24;20008;-88
2022/08/08 13:16:33;;;;;;;6.30;2.97;;;25.40;81.90;;;;;;5725163;25;20015;-82
2022/08/08 13:19:00;;;;;;;8.90;3.45;;;25.00;83.70;;;;;;5804672;24;20049;-89
2022/08/08 13:21:26;;;;;;;22.38;7.53;;;24.90;86.20;;;;;;5805038;24;20030;-84
2022/08/08 13:24:03;;;;;;;16.65;6.97;;;24.70;88.80;;;;;;5802003;24;20026;-91
2022/08/08 13:26:32;;;;;;;11.10;4.95;;;24.50;91.20;;;;;;5889478;23;20120;-87
2022/08/08 13:29:07;;;;;;;13.82;6.00;;;24.90;91.90;;;;;;5943475;24;20300;-87
2022/08/08 13:31:33;;;;;;;14.27;6.82;;;24.40;92.70;;;;;;5941297;24;20012;-93
2022/08/08 13:33:58;;;;;;;10.00;4.25;;;24.60;94.60;;;;;;5939812;24;20012;-87
2022/08/08 13:36:26;;;;;;;8.60;4.18;;;24.80;95.20;;;;;;5940418;24;20008;-87
2022/08/08 13:38:52;;;;;;;9.43;4.97;;;;;;;;;;5940522;24;20001;-91
2022/08/08 13:41:24;;;;;;;8.20;4.63;;;21.80;93.80;;;;;;5939893;24;20017;-89
2022/08/08 13:43:50;;;;;;;9.95;4.93;;;24.30;95.10;;;;;;5939884;24;20007;-86
2022/08/08 13:46:21;;;;;;;11.70;4.65;;;23.90;94.20;;;;;;5915015;24;20127;-83
2022/08/08 13:48:48;;;;;;;9.27;4.43;;;24.20;95.10;;;;;;5939728;24;20032;-83
2022/08/08 13:51:21;;;;;;;10.55;5.57;;;24.10;95.40;;;;;;5938367;24;20616;-90
2022/08/08 13:53:56;;;;;;;13.52;5.45;;;24.10;95.00;;;;;;5939829;24;20008;-87
2022/08/08 13:56:35;;;;;;;10.02;3.95;;;24.50;96.20;;;;;;5939768;24;20024;-84
2022/08/08 13:59:10;;;;;;;9.57;4.60;;;24.10;94.70;;;;;;5938216;24;20009;-84
2022/08/08 14:01:36;;;;;;;10.13;4.85;;;24.90;94.90;;;;;;5939737;24;20040;-83
2022/08/08 14:04:08;;;;;;;10.02;4.57;;;;;;;;;;5939482;24;20004;-87
2022/08/08 14:06:44;;;;;;;9.73;4.60;;;24.70;94.20;;;;;;5939502;24;20009;-86
2022/08/08 14:09:17;;;;;;;8.27;4.07;;;24.60;95.10;;;;;;5939413;24;20065;-82
2022/08/08 14:12:01;;;;;;;10.75;4.07;;;26.20;96.20;;;;;;5939716;24;20009;-82
2022/08/08 14:14:38;;;;;;;10.75;4.78;;;24.50;96.30;;;;;;5914699;24;20005;-86
2022/08/08 14:17:05;;;;;;;10.05;4.20;;;24.30;97.40;;;;;;5938120;24;20008;-85
2022/08/08 14:19:37;;;;;;;10.23;4.82;;;24.30;98.20;;;;;;5942359;24;20004;-88
2022/08/08 14:22:20;;;;;;;12.38;4.55;;;24.30;96.50;;;;;;5917401;24;20036;-86
2022/08/08 14:25:26;;;;;;;9.45;4.82;;;24.00;98.30;;;;;;5939397;24;20017;-82
2022/08/08 14:27:52;;;;;;;7.97;4.20;;;;;;;;;;5890795;24;20040;-84
2022/08/08 14:30:23;;;;;;;12.43;4.65;;;24.00;96.80;;;;;;5913653;24;20033;-82
2022/08/08 14:32:58;;;;;;;10.23;4.82;;;24.10;97.60;;;;;;5890525;24;20009;-83
2022/08/08 14:35:28;;;;;;;10.80;4.18;;;24.30;97.10;;;;;;5914781;24;20009;-84
2022/08/08 14:38:07;;;;;;;10.43;4.60;;;24.30;98.30;;;;;;5913485;24;20017;-82
2022/08/08 14:40:37;;;;;;;11.35;4.65;;;25.20;97.20;;;;;;5890002;24;20461;-88
2022/08/08 14:43:06;;;;;;;11.07;4.97;;;24.50;97.90;;;;;;5914650;24;20005;-87
2022/08/08 14:45:35;;;;;;;11.02;4.55;;;24.80;99.30;;;;;;5914231;24;20605;-84
2022/08/08 14:48:19;;;;;;;9.02;4.35;;;24.80;96.60;;;;;;5914382;24;20020;-86
2022/08/08 14:50:47;;;;;;;9.07;5.10;;;24.70;97.60;;;;;;5891210;24;20005;-86
2022/08/08 14:53:22;;;;;;;10.07;5.07;;;24.90;98.20;;;;;;5920303;24;20119;-88
2022/08/08 14:55:50;;;;;;;11.57;4.25;;;24.60;97.90;;;;;;5917849;24;20613;-86
2022/08/08 14:58:21;;;;;;;8.48;3.88;;;;;;;;;;5916681;24;20079;-90
2022/08/08 15:01:37;;;;;;;10.43;4.00;;;25.20;95.40;;;;;;5917050;24;20045;-87
2022/08/08 15:04:06;;;;;;;8.43;4.15;;;23.50;94.90;;;;;;5805366;24;20512;-91
2022/08/08 15:06:31;;;;;;;10.75;4.70;;;26.10;95.10;;;;;;5811751;24;20633;-87
2022/08/08 15:09:27;;;;;;;10.23;5.55;;;25.30;96.40;;;;;;5784947;24;20015;-83
2022/08/08 15:12:49;;;;;;;9.10;5.20;;;24.70;96.90;;;;;;5807515;24;20007;-84
2022/08/08 15:15:16;;;;;;;9.98;5.20;;;24.90;97.00;;;;;;5821561;24;20475;-93
2022/08/08 15:17:43;;;;;;;8.88;4.95;;;24.80;97.80;;;;;;5812659;24;20042;-89
2022/08/08 15:20:49;;;;;;;;;;;;;;;;;;;;;
2022/08/08 15:23:20;;;;;;;12.38;5.43;;;23.60;98.70;;;;;;5809490;24;20094;-91
2022/08/08 15:25:46;;;;;;;11.68;5.70;;;22.70;99.40;;;;;;5821403;24;20563;-90
2022/08/08 15:29:04;;;;;;;11.15;6.60;;;24.20;99.90;;;;;;5857377;24;20093;-84
2022/08/08 15:31:59;;;;;;;10.02;5.63;;;23.70;99.90;;;;;;5811647;24;20083;-91
2022/08/08 15:34:57;;;;;;;13.55;5.75;;;24.00;99.70;;;;;;5748998;24;20015;-83
2022/08/08 15:37:55;;;;;;;10.48;5.68;;;24.00;99.30;;;;;;5697678;25;20498;-85
2022/08/08 15:40:41;;;;;;;11.75;6.25;;;24.50;99.90;;;;;;5744279;24;20668;-87
2022/08/08 15:43:33;;;;;;;12.65;6.50;;;24.10;99.90;;;;;;5753131;24;20023;-82
2022/08/08 15:46:31;;;;;;;13.75;6.35;;;24.10;99.90;;;;;;5749555;24;20008;-91
2022/08/08 15:49:05;;;;;;;12.52;6.07;;;24.10;99.90;;;;;;5750710;24;20020;-87
2022/08/08 15:51:31;;;;;;;10.02;5.45;;;;;;;;;;5728252;24;20011;-92
2022/08/08 15:53:57;;;;;;;13.57;6.65;;;;;;;;;;5750073;24;20011;-85
2022/08/08 15:56:29;;;;;;;11.90;5.97;;;23.60;99.90;;;;;;5750463;24;20015;-85
2022/08/08 15:58:55;;;;;;;10.80;5.68;;;;;;;;;;5727621;24;20008;-89
2022/08/08 16:01:24;;;;;;;11.23;6.22;;;23.60;99.90;;;;;;5749864;24;20031;-87
2022/08/08 16:03:51;;;;;;;12.57;5.57;;;;;;;;;;5763556;24;20011;-87
2022/08/08 16:06:17;;;;;;;15.70;6.53;;;23.60;99.90;;;;;;5764144;24;20015;-90
2022/08/08 16:08:43;;;;;;;10.25;5.82;;;;;;;;;;5749717;24;20011;-89
2022/08/08 16:11:09;;;;;;;11.23;5.85;;;;;;;;;;5803099;24;20006;-87
2022/08/08 16:13:47;;;;;;;13.30;6.30;;;23.30;99.90;;;;;;5916618;24;20299;-87
2022/08/08 16:16:14;;;;;;;10.88;5.80;;;19.30;99.90;;;;;;5960054;23;20008;-83
2022/08/08 16:18:41;;;;;;;11.45;6.85;;;23.30;99.90;;;;;;5939739;23;20013;-85
2022/08/08 16:21:10;;;;;;;13.25;7.15;;;23.20;99.90;;;;;;5938734;24;20362;-85
2022/08/08 16:23:36;;;;;;;10.65;5.70;;;;;;;;;;5940449;23;20463;-84
2022/08/08 16:26:03;;;;;;;12.18;6.10;;;;;;;;;;5937164;23;20126;-82
2022/08/08 16:28:50;;;;;;;12.68;6.45;;;23.60;99.90;;;;;;5942202;24;20092;-83
2022/08/08 16:31:18;;;;;;;14.60;6.18;;;;;;;;;;5941705;24;20036;-83
2022/08/08 16:33:46;;;;;;;15.68;7.70;;;;;;;;;;5942086;24;20116;-87
2022/08/08 16:36:14;;;;;;;12.02;6.03;;;25.90;99.90;;;;;;5948081;24;20020;-86
2022/08/08 16:39:10;;;;;;;;;;;;;;;;;;;;;
2022/08/08 16:41:42;;;;;;;12.13;5.57;;;24.00;99.70;;;;;;5946624;24;20107;-85
2022/08/08 16:44:24;;;;;;;12.55;5.18;;;24.40;99.90;;;;;;5948901;24;20009;-82
2022/08/08 16:50:10;;;;;;;11.18;5.82;;;24.80;99.30;;;;;;5921322;24;20009;-86
2022/08/08 16:52:41;;;;;;;14.85;6.55;;;25.10;99.80;;;;;;5941356;24;20012;-86
2022/08/08 16:55:18;;;;;;;10.00;5.50;;;25.10;99.90;;;;;;5943746;24;20653;-89
2022/08/08 16:57:46;;;;;;;15.23;6.70;;;25.40;99.00;;;;;;5945093;24;20066;-89
2022/08/08 17:00:18;;;;;;;11.82;5.93;;;24.90;99.30;;;;;;5918781;24;20007;-89
2022/08/08 17:02:53;;;;;;;13.23;7.47;;;;;;;;;;5942025;24;20008;-81
2022/08/08 17:05:25;;;;;;;16.02;8.90;;;24.60;99.80;;;;;;5942342;24;20003;-88
2022/08/08 17:08:01;;;;;;;15.52;9.57;;;24.30;99.90;;;;;;5944375;24;20008;-85
2022/08/08 17:10:35;;;;;;;17.45;9.88;;;23.10;99.90;;;;;;5941661;24;20005;-85
2022/08/08 17:13:01;;;;;;;16.70;9.50;;;;;;;;;;5945650;24;20008;-90
2022/08/08 17:15:27;;;;;;;26.15;16.17;;;24.00;99.90;;;;;;5946503;24;20004;-90
2022/08/08 17:17:56;;;;;;;28.25;15.13;;;24.00;99.90;;;;;;5924326;24;20005;-85
2022/08/08 17:20:30;;;;;;;23.65;9.65;;;23.80;99.90;;;;;;5946251;24;20461;-87
2022/08/08 17:23:00;;;;;;;10.60;6.18;;;24.30;98.60;;;;;;5947460;24;20043;-90
2022/08/08 17:25:31;;;;;;;12.68;6.47;;;;;;;;;;5945407;24;20096;-85
2022/08/08 17:28:00;;;;;;;10.77;5.72;;;;;;;;;;5943140;24;20625;-89
2022/08/08 17:30:26;;;;;;;10.98;5.85;;;26.10;98.80;;;;;;5941195;24;20005;-85
2022/08/08 17:33:01;;;;;;;10.20;6.03;;;25.00;99.30;;;;;;5918994;24;20016;-86
2022/08/08 17:35:32;;;;;;;12.35;6.55;;;25.40;99.50;;;;;;5918388;24;20440;-87
2022/08/08 17:38:01;;;;;;;10.68;5.95;;;25.10;97.90;;;;;;5938713;24;20671;-88
2022/08/08 17:40:32;;;;;;;12.73;6.43;;;24.90;98.70;;;;;;5939586;24;20068;-88
2022/08/08 17:42:58;;;;;;;11.98;6.32;;;;;;;;;;5947277;23;20028;-83
2022/08/08 17:45:24;;;;;;;14.23;6.78;;;24.60;97.30;;;;;;5970823;23;20011;-84
2022/08/08 17:47:53;;;;;;;10.85;6.95;;;24.80;98.50;;;;;;5996014;23;20010;-88
2022/08/08 17:50:23;;;;;;;11.20;5.93;;;22.70;97.50;;;;;;5973029;23;20595;-90
2022/08/08 17:52:52;;;;;;;10.80;5.78;;;23.30;98.90;;;;;;5973552;23;20014;-87
2022/08/08 17:55:21;;;;;;;11.13;5.65;;;24.60;99.10;;;;;;6019269;23;19996;-82
2022/08/08 17:57:47;;;;;;;10.93;5.93;;;;;;;;;;5982532;23;20071;-87
2022/08/08 18:00:17;;;;;;;10.85;6.18;;;23.90;99.10;;;;;;6009162;23;20000;-83
2022/08/08 18:02:43;;;;;;;12.27;7.03;;;;;;;;;;5981961;23;20012;-83
2022/08/08 18:05:09;;;;;;;12.88;6.68;;;22.90;99.90;;;;;;5981167;23;20082;-84
2022/08/08 18:07:40;;;;;;;12.10;6.05;;;22.90;99.90;;;;;;6003847;23;20004;-90
2022/08/08 18:10:09;;;;;;;11.35;5.75;;;22.90;99.90;;;;;;5983925;23;20008;-84
2022/08/08 18:12:38;;;;;;;12.82;6.18;;;23.10;99.90;;;;;;6010931;23;20004;-82
2022/08/08 18:15:09;;;;;;;9.82;4.63;;;22.60;99.90;;;;;;5978327;23;20046;-89
2022/08/08 18:17:43;;;;;;;10.40;4.68;;;22.60;99.90;;;;;;6000479;23;20010;-90
2022/08/08 18:20:14;;;;;;;8.65;3.67;;;23.20;99.90;;;;;;5998203;23;20047;-85
2022/08/08 18:22:40;;;;;;;8.32;3.88;;;;;;;;;;5971926;23;20016;-85
2022/08/08 18:25:07;;;;;;;7.80;4.03;;;22.20;99.90;;;;;;5995024;23;20008;-89
2022/08/08 18:27:33;;;;;;;10.55;4.75;;;;;;;;;;5993864;23;20643;-92
2022/08/08 18:30:01;;;;;;;10.48;4.13;;;21.30;99.90;;;;;;5967999;23;20617;-80
2022/08/08 18:32:40;;;;;;;10.60;4.20;;;21.80;99.90;;;;;;5968727;23;20016;-80
2022/08/08 18:36:12;;;;;;;7.60;3.25;;;20.80;99.90;;;;;;5977716;23;20255;-84
2022/08/08 18:38:43;;;;;;;12.27;3.72;;;21.50;99.90;;;;;;5975049;24;20004;-82
2022/08/08 18:42:03;;;;;;;6.50;2.90;;;20.50;99.90;;;;;;5951118;24;20075;-92
2022/08/08 18:44:36;;;;;;;8.82;3.28;;;20.00;99.90;;;;;;5801013;24;20189;-86
2022/08/08 18:47:23;;;;;;;9.65;3.63;;;20.20;99.90;;;;;;5805947;24;20015;-82
2022/08/08 18:49:58;;;;;;;6.93;3.42;;;20.30;99.90;;;;;;5801966;24;20285;-81
2022/08/08 18:52:52;;;;;;;14.23;4.28;;;19.80;99.90;;;;;;5803883;24;20030;-84
2022/08/08 18:55:31;;;;;;;10.10;3.95;;;18.30;99.90;;;;;;5799833;24;20104;-83
2022/08/08 18:58:32;;;;;;;10.25;4.18;;;19.60;99.90;;;;;;5802390;24;20007;-84
2022/08/08 19:01:04;;;;;;;6.97;3.53;;;21.10;99.90;;;;;;5809375;24;20011;-87
2022/08/08 19:03:29;;;;;;;7.35;3.28;;;19.50;99.90;;;;;;5805048;24;20475;-82
2022/08/08 19:06:07;;;;;;;10.68;3.45;;;19.90;99.90;;;;;;5800647;24;20116;-85
2022/08/08 19:08:58;;;;;;;9.30;3.22;;;19.50;99.90;;;;;;5804870;24;20025;-84
2022/08/08 19:11:27;;;;;;;9.05;4.38;;;19.80;99.90;;;;;;5686182;25;20008;-82
2022/08/08 19:14:15;;;;;;;18.17;7.75;;;19.30;99.90;;;;;;5704446;25;20012;-93
2022/08/08 19:16:48;;;;;;;15.43;6.70;;;18.30;99.90;;;;;;5696090;25;20016;-90
2022/08/08 19:19:46;;;;;;;12.65;6.00;;;19.20;99.90;;;;;;5695623;25;20015;-84
2022/08/08 19:22:15;;;;;;;11.05;5.85;;;18.50;99.90;;;;;;5779546;24;20015;-84
2022/08/08 19:28:44;;;;;;;10.95;3.40;;;19.40;99.90;;;;;;5804889;24;20050;-91
2022/08/08 19:32:00;;;;;;;7.70;3.55;;;19.40;99.90;;;;;;5786217;24;20316;-89
2022/08/08 19:34:59;;;;;;;16.02;4.50;;;19.30;99.90;;;;;;5729503;24;20027;-84
2022/08/08 19:37:34;;;;;;;8.25;4.05;;;19.50;99.90;;;;;;5776645;24;20045;-82
2022/08/08 19:40:18;;;;;;;10.90;4.60;;;19.50;99.90;;;;;;5775117;24;20027;-84
2022/08/08 19:45:16;;;;;;;9.77;5.00;;;19.90;99.90;;;;;;5967377;24;20020;-92
2022/08/08 19:47:54;;;;;;;10.57;4.90;;;20.00;99.90;;;;;;5947483;24;20016;-87
2022/08/08 19:50:32;;;;;;;11.20;5.45;;;20.00;99.90;;;;;;5975305;24;20023;-91
2022/08/08 19:53:00;;;;;;;9.35;4.78;;;20.10;99.90;;;;;;5951757;24;20031;-84
2022/08/08 19:55:32;;;;;;;7.55;3.90;;;20.20;99.90;;;;;;5974102;24;20004;-88
2022/08/08 19:57:58;;;;;;;11.68;5.25;;;19.80;99.90;;;;;;5954783;24;20000;-87
2022/08/08 20:00:43;;;;;;;;;;;;;;;;;;;;;
2022/08/08 20:03:15;;;;;;;8.82;3.90;;;20.30;99.90;;;;;;5970314;23;20530;-80
2022/08/08 20:05:45;;;;;;;9.80;3.83;;;20.10;99.90;;;;;;5943739;24;20000;-93
2022/08/08 20:08:26;;;;;;;9.02;4.20;;;20.00;99.90;;;;;;5968909;24;20083;-82
2022/08/08 20:11:01;;;;;;;9.40;4.45;;;20.70;99.90;;;;;;5946193;24;20040;-93
2022/08/08 20:13:30;;;;;;;8.35;3.72;;;20.20;99.90;;;;;;5948792;24;20037;-89
2022/08/08 20:15:56;;;;;;;14.23;5.35;;;20.10;99.90;;;;;;5972399;24;20188;-89
2022/08/08 20:18:33;;;;;;;9.65;3.83;;;19.80;99.90;;;;;;5972344;24;20067;-83
2022/08/08 20:21:01;;;;;;;7.63;3.15;;;19.90;99.90;;;;;;5944422;24;20019;-86
2022/08/08 20:23:29;;;;;;;12.68;4.32;;;19.50;99.90;;;;;;5944563;24;20530;-82
2022/08/08 20:25:58;;;;;;;10.30;4.65;;;19.30;99.90;;;;;;5945967;24;20007;-81
2022/08/08 20:28:26;;;;;;;8.05;3.72;;;19.30;99.90;;;;;;5943371;24;20008;-87
2022/08/08 20:30:52;;;;;;;10.40;4.32;;;19.40;99.90;;;;;;5944172;24;20040;-84
2022/08/08 20:33:19;;;;;;;8.75;4.10;;;19.70;99.90;;;;;;5968862;24;20285;-82
2022/08/08 20:35:46;;;;;;;10.27;3.67;;;19.60;99.90;;;;;;5944826;24;20012;-92
2022/08/08 20:38:20;;;;;;;7.47;3.58;;;19.80;99.90;;;;;;5948914;24;20004;-91
2022/08/08 20:41:01;;;;;;;8.50;3.83;;;19.40;99.90;;;;;;5944387;24;20020;-93
2022/08/08 20:43:26;;;;;;;6.38;3.20;;;19.50;99.90;;;;;;5953448;24;20482;-83
2022/08/08 20:45:52;;;;;;;8.00;3.28;;;;;;;;;;5966959;24;20004;-77
2022/08/08 20:48:18;;;;;;;9.68;3.13;;;19.60;99.90;;;;;;5942398;24;20047;-81
2022/08/08 20:50:44;;;;;;;8.57;3.65;;;19.70;99.90;;;;;;5967999;24;20652;-79
2022/08/08 20:53:13;;;;;;;7.97;3.35;;;19.80;99.90;;;;;;5966652;24;20004;-84
2022/08/08 20:55:41;;;;;;;7.22;2.72;;;19.80;99.90;;;;;;5966441;24;20012;-80
2022/08/08 20:58:07;;;;;;;6.97;2.95;;;20.00;99.90;;;;;;5967073;23;20027;-81
2022/08/08 21:00:35;;;;;;;6.25;2.65;;;20.00;99.90;;;;;;5968094;24;20033;-83
2022/08/08 21:03:25;;;;;;;9.15;4.10;;;20.00;99.90;;;;;;5945315;24;20496;-83
2022/08/08 21:06:08;;;;;;;7.68;3.22;;;20.00;99.90;;;;;;5943362;24;20580;-83
2022/08/08 21:08:36;;;;;;;9.03;4.13;;;19.60;99.90;;;;;;5944651;24;20639;-81
2022/08/08 21:11:02;;;;;;;7.68;3.42;;;;;;;;;;5942853;24;20283;-77
2022/08/08 21:13:28;;;;;;;7.50;3.40;;;19.40;99.90;;;;;;5952180;24;20016;-79
2022/08/08 21:15:57;;;;;;;7.35;3.00;;;19.20;99.90;;;;;;5943879;24;20591;-78
2022/08/08 21:18:23;;;;;;;7.45;3.20;;;19.40;99.90;;;;;;5968459;24;20024;-88
2022/08/08 21:20:49;;;;;;;7.20;3.55;;;;;;;;;;5966947;24;20023;-89
2022/08/08 21:23:15;;;;;;;8.18;3.20;;;19.50;99.90;;;;;;5967398;24;20007;-77
2022/08/08 21:25:41;;;;;;;7.43;3.53;;;19.40;99.90;;;;;;5943527;24;20010;-89
2022/08/08 21:28:16;;;;;;;8.60;3.92;;;19.70;99.90;;;;;;5968507;24;20035;-89
2022/08/08 21:30:56;;;;;;;7.07;3.20;;;19.90;99.90;;;;;;5970689;24;20011;-82
2022/08/08 21:33:22;;;;;;;7.63;3.20;;;;;;;;;;5968434;23;20008;-91
2022/08/08 21:35:48;;;;;;;12.73;3.90;;;19.90;99.90;;;;;;5967256;23;20005;-86
2022/08/08 21:38:14;;;;;;;7.32;4.15;;;20.40;99.90;;;;;;5966842;24;20068;-84
2022/08/08 21:40:39;;;;;;;9.73;3.85;;;20.90;99.90;;;;;;5967489;24;20674;-87
2022/08/08 21:43:08;;;;;;;9.32;3.85;;;21.40;99.90;;;;;;5967087;23;20012;-87
2022/08/08 21:45:34;;;;;;;8.02;3.25;;;23.30;99.90;;;;;;5968176;24;20667;-84
2022/08/08 21:48:00;;;;;;;6.72;3.03;;;22.00;99.90;;;;;;5943544;24;20001;-84
2022/08/08 21:50:26;;;;;;;8.07;4.07;;;22.00;99.90;;;;;;5968345;24;20008;-83
2022/08/08 21:52:52;;;;;;;9.57;3.67;;;21.60;99.90;;;;;;5969167;24;20008;-77
2022/08/08 21:55:18;;;;;;;8.40;3.20;;;21.50;99.90;;;;;;5943343;24;20020;-82
2022/08/08 21:57:44;;;;;;;6.47;2.95;;;21.40;99.90;;;;;;5967543;24;20012;-89
2022/08/08 22:00:11;;;;;;;7.22;3.63;;;21.50;99.90;;;;;;5967102;24;20603;-77
2022/08/08 22:02:37;;;;;;;5.78;2.47;;;21.70;99.90;;;;;;5942866;24;20012;-87
2022/08/08 22:05:03;;;;;;;6.97;3.05;;;21.80;99.90;;;;;;5967354;24;20553;-88
2022/08/08 22:07:32;;;;;;;10.07;3.40;;;21.80;99.90;;;;;;5968492;24;20004;-81
2022/08/08 22:10:01;;;;;;;8.85;3.88;;;21.70;99.90;;;;;;5965634;24;20013;-76
2022/08/08 22:12:27;;;;;;;8.15;3.53;;;22.00;99.90;;;;;;5942811;24;20420;-86
2022/08/08 22:14:53;;;;;;;9.30;3.22;;;22.00;99.90;;;;;;5967314;24;20095;-88
2022/08/08 22:17:19;;;;;;;7.90;3.72;;;21.90;99.90;;;;;;5968916;24;20008;-86